sensor_id;sensor_type;location;lat;lon;timestamp;P1;durP1;ratioP1;P2;durP2;ratioP2
13102;SDS011;52970;46.752;17.108;2023-08-06T00:01:30;2.88;;;1.40;;
13102;SDS011;52970;46.752;17.108;2023-08-06T00:03:56;1.85;;;1.52;;
13102;SDS011;52970;46.752;17.108;2023-08-06T00:06:21;1.42;;;1.20;;
13102;SDS011;52970;46.752;17.108;2023-08-06T00:08:46;2.50;;;1.30;;
13102;SDS011;52970;46.752;17.108;2023-08-06T00:11:11;1.50;;;1.40;;
13102;SDS011;52970;46.752;17.108;2023-08-06T00:13:37;1.20;;;1.20;;
13102;SDS011;52970;46.752;17.108;2023-08-06T00:16:09;1.83;;;1.10;;
13102;SDS011;52970;46.752;17.108;2023-08-06T00:18:36;1.00;;;1.00;;
13102;SDS011;52970;46.752;17.108;2023-08-06T00:21:01;1.75;;;1.40;;
13102;SDS011;52970;46.752;17.108;2023-08-06T00:23:26;1.63;;;1.38;;
13102;SDS011;52970;46.752;17.108;2023-08-06T00:25:51;1.48;;;1.40;;
13102;SDS011;52970;46.752;17.108;2023-08-06T00:28:17;1.73;;;1.43;;
13102;SDS011;52970;46.752;17.108;2023-08-06T00:30:42;1.70;;;1.38;;
13102;SDS011;52970;46.752;17.108;2023-08-06T00:33:07;2.33;;;1.20;;
13102;SDS011;52970;46.752;17.108;2023-08-06T00:35:32;2.17;;;1.38;;
13102;SDS011;52970;46.752;17.108;2023-08-06T00:37:58;1.13;;;1.10;;
13102;SDS011;52970;46.752;17.108;2023-08-06T00:40:23;1.17;;;1.17;;
13102;SDS011;52970;46.752;17.108;2023-08-06T00:42:48;1.20;;;1.10;;
13102;SDS011;52970;46.752;17.108;2023-08-06T00:45:13;3.13;;;1.33;;
13102;SDS011;52970;46.752;17.108;2023-08-06T00:47:39;1.20;;;1.20;;
13102;SDS011;52970;46.752;17.108;2023-08-06T00:50:05;1.20;;;1.08;;
13102;SDS011;52970;46.752;17.108;2023-08-06T00:52:31;2.80;;;1.50;;
13102;SDS011;52970;46.752;17.108;2023-08-06T00:54:56;1.47;;;1.37;;
13102;SDS011;52970;46.752;17.108;2023-08-06T00:57:22;2.00;;;1.17;;
13102;SDS011;52970;46.752;17.108;2023-08-06T00:59:49;1.20;;;1.08;;
13102;SDS011;52970;46.752;17.108;2023-08-06T01:02:14;1.17;;;1.00;;
13102;SDS011;52970;46.752;17.108;2023-08-06T01:04:39;2.40;;;1.58;;
13102;SDS011;52970;46.752;17.108;2023-08-06T01:07:09;1.85;;;1.00;;
13102;SDS011;52970;46.752;17.108;2023-08-06T01:09:53;1.95;;;1.13;;
13102;SDS011;52970;46.752;17.108;2023-08-06T01:12:25;1.40;;;1.10;;
13102;SDS011;52970;46.752;17.108;2023-08-06T01:17:27;2.72;;;0.98;;
13102;SDS011;52970;46.752;17.108;2023-08-06T01:19:52;7.45;;;1.42;;
13102;SDS011;52970;46.752;17.108;2023-08-06T01:22:18;1.63;;;1.08;;
13102;SDS011;52970;46.752;17.108;2023-08-06T01:24:44;1.17;;;1.10;;
13102;SDS011;52970;46.752;17.108;2023-08-06T01:27:14;1.92;;;0.90;;
13102;SDS011;52970;46.752;17.108;2023-08-06T01:29:42;1.58;;;1.00;;
13102;SDS011;52970;46.752;17.108;2023-08-06T01:32:10;1.25;;;1.15;;
13102;SDS011;52970;46.752;17.108;2023-08-06T01:34:36;1.45;;;1.17;;
13102;SDS011;52970;46.752;17.108;2023-08-06T01:37:03;0.90;;;0.80;;
13102;SDS011;52970;46.752;17.108;2023-08-06T01:39:29;1.75;;;1.10;;
13102;SDS011;52970;46.752;17.108;2023-08-06T01:41:56;1.00;;;1.00;;
13102;SDS011;52970;46.752;17.108;2023-08-06T01:44:21;1.55;;;1.00;;
13102;SDS011;52970;46.752;17.108;2023-08-06T01:46:46;0.80;;;0.80;;
13102;SDS011;52970;46.752;17.108;2023-08-06T01:49:12;2.35;;;1.00;;
13102;SDS011;52970;46.752;17.108;2023-08-06T01:51:37;2.30;;;1.20;;
13102;SDS011;52970;46.752;17.108;2023-08-06T01:54:02;2.22;;;1.23;;
13102;SDS011;52970;46.752;17.108;2023-08-06T01:56:28;1.77;;;1.02;;
13102;SDS011;52970;46.752;17.108;2023-08-06T01:58:53;1.95;;;1.00;;
13102;SDS011;52970;46.752;17.108;2023-08-06T02:01:18;1.25;;;1.10;;
13102;SDS011;52970;46.752;17.108;2023-08-06T02:03:44;2.03;;;1.20;;
13102;SDS011;52970;46.752;17.108;2023-08-06T02:06:09;1.63;;;1.02;;
13102;SDS011;52970;46.752;17.108;2023-08-06T02:08:34;2.78;;;1.05;;
13102;SDS011;52970;46.752;17.108;2023-08-06T02:11:00;2.50;;;0.93;;
13102;SDS011;52970;46.752;17.108;2023-08-06T02:13:25;2.72;;;1.02;;
13102;SDS011;52970;46.752;17.108;2023-08-06T02:15:50;3.00;;;1.00;;
13102;SDS011;52970;46.752;17.108;2023-08-06T02:18:16;1.13;;;1.00;;
13102;SDS011;52970;46.752;17.108;2023-08-06T02:20:41;1.27;;;0.90;;
13102;SDS011;52970;46.752;17.108;2023-08-06T02:23:07;1.45;;;1.17;;
13102;SDS011;52970;46.752;17.108;2023-08-06T02:25:32;2.15;;;0.98;;
13102;SDS011;52970;46.752;17.108;2023-08-06T02:27:58;1.17;;;1.10;;
13102;SDS011;52970;46.752;17.108;2023-08-06T02:30:23;3.80;;;1.10;;
13102;SDS011;52970;46.752;17.108;2023-08-06T02:32:48;6.82;;;1.15;;
13102;SDS011;52970;46.752;17.108;2023-08-06T02:35:14;4.95;;;1.15;;
13102;SDS011;52970;46.752;17.108;2023-08-06T02:37:39;3.03;;;1.10;;
13102;SDS011;52970;46.752;17.108;2023-08-06T02:40:04;7.13;;;1.90;;
13102;SDS011;52970;46.752;17.108;2023-08-06T02:42:29;2.60;;;0.90;;
13102;SDS011;52970;46.752;17.108;2023-08-06T02:44:56;1.73;;;1.05;;
13102;SDS011;52970;46.752;17.108;2023-08-06T02:47:21;2.35;;;0.93;;
13102;SDS011;52970;46.752;17.108;2023-08-06T02:49:46;3.05;;;0.98;;
13102;SDS011;52970;46.752;17.108;2023-08-06T02:52:12;0.93;;;0.90;;
13102;SDS011;52970;46.752;17.108;2023-08-06T02:54:37;1.50;;;0.88;;
13102;SDS011;52970;46.752;17.108;2023-08-06T02:57:02;1.50;;;0.93;;
13102;SDS011;52970;46.752;17.108;2023-08-06T02:59:27;1.13;;;0.98;;
13102;SDS011;52970;46.752;17.108;2023-08-06T03:01:53;1.63;;;1.00;;
13102;SDS011;52970;46.752;17.108;2023-08-06T03:04:18;1.02;;;0.80;;
13102;SDS011;52970;46.752;17.108;2023-08-06T03:06:43;0.88;;;0.88;;
13102;SDS011;52970;46.752;17.108;2023-08-06T03:09:09;0.93;;;0.80;;
13102;SDS011;52970;46.752;17.108;2023-08-06T03:11:34;1.55;;;0.90;;
13102;SDS011;52970;46.752;17.108;2023-08-06T03:13:59;0.80;;;0.80;;
13102;SDS011;52970;46.752;17.108;2023-08-06T03:16:24;1.10;;;0.68;;
13102;SDS011;52970;46.752;17.108;2023-08-06T03:18:49;0.57;;;0.57;;
13102;SDS011;52970;46.752;17.108;2023-08-06T03:21:15;0.70;;;0.70;;
13102;SDS011;52970;46.752;17.108;2023-08-06T03:23:40;1.85;;;0.95;;
13102;SDS011;52970;46.752;17.108;2023-08-06T03:26:05;0.98;;;0.88;;
13102;SDS011;52970;46.752;17.108;2023-08-06T03:28:30;1.30;;;0.80;;
13102;SDS011;52970;46.752;17.108;2023-08-06T03:31:00;1.33;;;0.80;;
13102;SDS011;52970;46.752;17.108;2023-08-06T03:33:25;1.85;;;0.80;;
13102;SDS011;52970;46.752;17.108;2023-08-06T03:35:51;0.80;;;0.80;;
13102;SDS011;52970;46.752;17.108;2023-08-06T03:38:16;2.20;;;0.85;;
13102;SDS011;52970;46.752;17.108;2023-08-06T03:40:42;1.75;;;0.80;;
13102;SDS011;52970;46.752;17.108;2023-08-06T03:43:08;0.73;;;0.73;;
13102;SDS011;52970;46.752;17.108;2023-08-06T03:45:33;3.95;;;1.02;;
13102;SDS011;52970;46.752;17.108;2023-08-06T03:47:59;3.55;;;1.00;;
13102;SDS011;52970;46.752;17.108;2023-08-06T03:50:24;1.45;;;1.00;;
13102;SDS011;52970;46.752;17.108;2023-08-06T03:52:49;3.22;;;1.00;;
13102;SDS011;52970;46.752;17.108;2023-08-06T03:55:14;1.23;;;0.77;;
13102;SDS011;52970;46.752;17.108;2023-08-06T03:57:40;3.53;;;1.13;;
13102;SDS011;52970;46.752;17.108;2023-08-06T04:00:05;2.17;;;0.93;;
13102;SDS011;52970;46.752;17.108;2023-08-06T04:02:30;1.13;;;1.00;;
13102;SDS011;52970;46.752;17.108;2023-08-06T04:04:56;2.08;;;0.88;;
13102;SDS011;52970;46.752;17.108;2023-08-06T04:07:21;1.88;;;0.85;;
13102;SDS011;52970;46.752;17.108;2023-08-06T04:09:59;1.67;;;1.08;;
13102;SDS011;52970;46.752;17.108;2023-08-06T04:12:25;2.20;;;0.75;;
13102;SDS011;52970;46.752;17.108;2023-08-06T04:14:51;0.82;;;0.80;;
13102;SDS011;52970;46.752;17.108;2023-08-06T04:17:19;1.00;;;1.00;;
13102;SDS011;52970;46.752;17.108;2023-08-06T04:19:52;1.10;;;0.90;;
13102;SDS011;52970;46.752;17.108;2023-08-06T04:22:18;0.77;;;0.77;;
13102;SDS011;52970;46.752;17.108;2023-08-06T04:24:43;1.55;;;0.57;;
13102;SDS011;52970;46.752;17.108;2023-08-06T04:27:09;1.10;;;0.70;;
13102;SDS011;52970;46.752;17.108;2023-08-06T04:29:35;1.30;;;0.80;;
13102;SDS011;52970;46.752;17.108;2023-08-06T04:32:00;1.65;;;0.70;;
13102;SDS011;52970;46.752;17.108;2023-08-06T04:34:25;1.17;;;0.80;;
13102;SDS011;52970;46.752;17.108;2023-08-06T04:36:51;1.08;;;0.80;;
13102;SDS011;52970;46.752;17.108;2023-08-06T04:39:16;1.13;;;0.70;;
13102;SDS011;52970;46.752;17.108;2023-08-06T04:41:41;0.80;;;0.70;;
13102;SDS011;52970;46.752;17.108;2023-08-06T04:44:06;1.48;;;0.70;;
13102;SDS011;52970;46.752;17.108;2023-08-06T04:46:31;1.58;;;1.00;;
13102;SDS011;52970;46.752;17.108;2023-08-06T04:48:57;1.38;;;0.90;;
13102;SDS011;52970;46.752;17.108;2023-08-06T04:51:23;1.55;;;0.70;;
13102;SDS011;52970;46.752;17.108;2023-08-06T04:53:48;4.30;;;0.90;;
13102;SDS011;52970;46.752;17.108;2023-08-06T04:56:14;1.55;;;1.00;;
13102;SDS011;52970;46.752;17.108;2023-08-06T04:58:39;1.25;;;0.90;;
13102;SDS011;52970;46.752;17.108;2023-08-06T05:01:04;2.00;;;1.00;;
13102;SDS011;52970;46.752;17.108;2023-08-06T05:03:29;2.63;;;0.80;;
13102;SDS011;52970;46.752;17.108;2023-08-06T05:05:55;1.02;;;0.73;;
13102;SDS011;52970;46.752;17.108;2023-08-06T05:08:20;0.60;;;0.60;;
13102;SDS011;52970;46.752;17.108;2023-08-06T05:10:45;0.70;;;0.70;;
13102;SDS011;52970;46.752;17.108;2023-08-06T05:13:10;1.08;;;0.70;;
13102;SDS011;52970;46.752;17.108;2023-08-06T05:15:36;0.60;;;0.60;;
13102;SDS011;52970;46.752;17.108;2023-08-06T05:18:01;0.77;;;0.77;;
13102;SDS011;52970;46.752;17.108;2023-08-06T05:20:26;0.90;;;0.90;;
13102;SDS011;52970;46.752;17.108;2023-08-06T05:22:52;1.10;;;0.63;;
13102;SDS011;52970;46.752;17.108;2023-08-06T05:25:17;0.60;;;0.60;;
13102;SDS011;52970;46.752;17.108;2023-08-06T05:27:42;0.50;;;0.50;;
13102;SDS011;52970;46.752;17.108;2023-08-06T05:30:08;1.52;;;0.70;;
13102;SDS011;52970;46.752;17.108;2023-08-06T05:32:33;1.63;;;0.80;;
13102;SDS011;52970;46.752;17.108;2023-08-06T05:34:58;3.20;;;1.00;;
13102;SDS011;52970;46.752;17.108;2023-08-06T05:37:24;0.55;;;0.55;;
13102;SDS011;52970;46.752;17.108;2023-08-06T05:39:49;0.63;;;0.63;;
13102;SDS011;52970;46.752;17.108;2023-08-06T05:42:14;1.45;;;0.93;;
13102;SDS011;52970;46.752;17.108;2023-08-06T05:44:39;2.38;;;0.80;;
13102;SDS011;52970;46.752;17.108;2023-08-06T05:47:05;0.60;;;0.60;;
13102;SDS011;52970;46.752;17.108;2023-08-06T05:49:30;0.60;;;0.60;;
13102;SDS011;52970;46.752;17.108;2023-08-06T05:51:55;0.60;;;0.60;;
13102;SDS011;52970;46.752;17.108;2023-08-06T05:54:21;0.70;;;0.70;;
13102;SDS011;52970;46.752;17.108;2023-08-06T05:56:46;0.65;;;0.65;;
13102;SDS011;52970;46.752;17.108;2023-08-06T05:59:12;0.40;;;0.40;;
13102;SDS011;52970;46.752;17.108;2023-08-06T06:01:37;0.80;;;0.80;;
13102;SDS011;52970;46.752;17.108;2023-08-06T06:04:02;0.80;;;0.60;;
13102;SDS011;52970;46.752;17.108;2023-08-06T06:06:27;0.75;;;0.50;;
13102;SDS011;52970;46.752;17.108;2023-08-06T06:08:53;0.60;;;0.60;;
13102;SDS011;52970;46.752;17.108;2023-08-06T06:11:18;0.55;;;0.55;;
13102;SDS011;52970;46.752;17.108;2023-08-06T06:13:46;2.35;;;0.85;;
13102;SDS011;52970;46.752;17.108;2023-08-06T06:16:12;0.70;;;0.70;;
13102;SDS011;52970;46.752;17.108;2023-08-06T06:18:37;0.50;;;0.50;;
13102;SDS011;52970;46.752;17.108;2023-08-06T06:21:02;0.50;;;0.50;;
13102;SDS011;52970;46.752;17.108;2023-08-06T06:23:27;0.50;;;0.50;;
13102;SDS011;52970;46.752;17.108;2023-08-06T06:25:53;1.45;;;0.50;;
13102;SDS011;52970;46.752;17.108;2023-08-06T06:28:18;0.50;;;0.50;;
13102;SDS011;52970;46.752;17.108;2023-08-06T06:30:43;0.70;;;0.70;;
13102;SDS011;52970;46.752;17.108;2023-08-06T06:33:09;0.60;;;0.60;;
13102;SDS011;52970;46.752;17.108;2023-08-06T06:35:34;0.57;;;0.55;;
13102;SDS011;52970;46.752;17.108;2023-08-06T06:37:59;0.55;;;0.55;;
13102;SDS011;52970;46.752;17.108;2023-08-06T06:40:25;0.70;;;0.70;;
13102;SDS011;52970;46.752;17.108;2023-08-06T06:42:50;1.60;;;0.70;;
13102;SDS011;52970;46.752;17.108;2023-08-06T06:45:15;0.60;;;0.60;;
13102;SDS011;52970;46.752;17.108;2023-08-06T06:47:40;1.45;;;0.77;;
13102;SDS011;52970;46.752;17.108;2023-08-06T06:50:06;0.63;;;0.63;;
13102;SDS011;52970;46.752;17.108;2023-08-06T06:52:31;0.65;;;0.65;;
13102;SDS011;52970;46.752;17.108;2023-08-06T06:54:57;1.00;;;0.70;;
13102;SDS011;52970;46.752;17.108;2023-08-06T06:57:22;0.60;;;0.60;;
13102;SDS011;52970;46.752;17.108;2023-08-06T06:59:47;0.60;;;0.60;;
13102;SDS011;52970;46.752;17.108;2023-08-06T07:02:12;0.60;;;0.55;;
13102;SDS011;52970;46.752;17.108;2023-08-06T07:04:38;0.60;;;0.60;;
13102;SDS011;52970;46.752;17.108;2023-08-06T07:07:03;2.55;;;0.70;;
13102;SDS011;52970;46.752;17.108;2023-08-06T07:09:28;0.65;;;0.65;;
13102;SDS011;52970;46.752;17.108;2023-08-06T07:11:53;0.70;;;0.70;;
13102;SDS011;52970;46.752;17.108;2023-08-06T07:14:19;0.63;;;0.63;;
13102;SDS011;52970;46.752;17.108;2023-08-06T07:16:44;1.48;;;0.60;;
13102;SDS011;52970;46.752;17.108;2023-08-06T07:19:09;0.60;;;0.60;;
13102;SDS011;52970;46.752;17.108;2023-08-06T07:21:34;0.65;;;0.50;;
13102;SDS011;52970;46.752;17.108;2023-08-06T07:24:00;0.90;;;0.60;;
13102;SDS011;52970;46.752;17.108;2023-08-06T07:26:25;0.60;;;0.60;;
13102;SDS011;52970;46.752;17.108;2023-08-06T07:28:50;0.70;;;0.70;;
13102;SDS011;52970;46.752;17.108;2023-08-06T07:31:15;0.52;;;0.52;;
13102;SDS011;52970;46.752;17.108;2023-08-06T07:33:41;0.80;;;0.80;;
13102;SDS011;52970;46.752;17.108;2023-08-06T07:36:13;0.90;;;0.75;;
13102;SDS011;52970;46.752;17.108;2023-08-06T07:38:38;0.70;;;0.70;;
13102;SDS011;52970;46.752;17.108;2023-08-06T07:41:04;0.60;;;0.60;;
13102;SDS011;52970;46.752;17.108;2023-08-06T07:43:30;0.50;;;0.50;;
13102;SDS011;52970;46.752;17.108;2023-08-06T07:45:57;0.57;;;0.55;;
13102;SDS011;52970;46.752;17.108;2023-08-06T07:48:22;0.77;;;0.60;;
13102;SDS011;52970;46.752;17.108;2023-08-06T07:50:50;0.73;;;0.53;;
13102;SDS011;52970;46.752;17.108;2023-08-06T07:53:18;1.02;;;0.80;;
13102;SDS011;52970;46.752;17.108;2023-08-06T07:55:43;0.68;;;0.68;;
13102;SDS011;52970;46.752;17.108;2023-08-06T07:58:08;0.70;;;0.70;;
13102;SDS011;52970;46.752;17.108;2023-08-06T08:00:34;1.05;;;0.65;;
13102;SDS011;52970;46.752;17.108;2023-08-06T08:02:59;3.00;;;1.13;;
13102;SDS011;52970;46.752;17.108;2023-08-06T08:05:24;0.70;;;0.70;;
13102;SDS011;52970;46.752;17.108;2023-08-06T08:07:49;0.90;;;0.70;;
13102;SDS011;52970;46.752;17.108;2023-08-06T08:10:15;0.77;;;0.60;;
13102;SDS011;52970;46.752;17.108;2023-08-06T08:12:40;1.73;;;0.90;;
13102;SDS011;52970;46.752;17.108;2023-08-06T08:15:06;0.77;;;0.70;;
13102;SDS011;52970;46.752;17.108;2023-08-06T08:17:31;1.63;;;0.80;;
13102;SDS011;52970;46.752;17.108;2023-08-06T08:19:56;0.75;;;0.75;;
13102;SDS011;52970;46.752;17.108;2023-08-06T08:22:21;1.02;;;0.80;;
13102;SDS011;52970;46.752;17.108;2023-08-06T08:24:47;1.48;;;1.00;;
13102;SDS011;52970;46.752;17.108;2023-08-06T08:27:12;0.60;;;0.60;;
13102;SDS011;52970;46.752;17.108;2023-08-06T08:29:37;0.80;;;0.80;;
13102;SDS011;52970;46.752;17.108;2023-08-06T08:32:02;1.45;;;0.77;;
13102;SDS011;52970;46.752;17.108;2023-08-06T08:34:28;0.90;;;0.90;;
13102;SDS011;52970;46.752;17.108;2023-08-06T08:36:53;0.70;;;0.70;;
13102;SDS011;52970;46.752;17.108;2023-08-06T08:39:18;1.38;;;0.90;;
13102;SDS011;52970;46.752;17.108;2023-08-06T08:41:43;1.23;;;0.80;;
13102;SDS011;52970;46.752;17.108;2023-08-06T08:44:09;0.73;;;0.73;;
13102;SDS011;52970;46.752;17.108;2023-08-06T08:46:38;1.63;;;0.90;;
13102;SDS011;52970;46.752;17.108;2023-08-06T08:49:05;0.65;;;0.65;;
13102;SDS011;52970;46.752;17.108;2023-08-06T08:51:31;0.70;;;0.70;;
13102;SDS011;52970;46.752;17.108;2023-08-06T08:53:57;0.80;;;0.80;;
13102;SDS011;52970;46.752;17.108;2023-08-06T08:56:23;0.60;;;0.60;;
13102;SDS011;52970;46.752;17.108;2023-08-06T08:58:49;0.57;;;0.57;;
13102;SDS011;52970;46.752;17.108;2023-08-06T09:01:14;0.93;;;0.77;;
13102;SDS011;52970;46.752;17.108;2023-08-06T09:03:40;1.27;;;0.73;;
13102;SDS011;52970;46.752;17.108;2023-08-06T09:06:05;0.77;;;0.77;;
13102;SDS011;52970;46.752;17.108;2023-08-06T09:08:34;0.82;;;0.73;;
13102;SDS011;52970;46.752;17.108;2023-08-06T09:11:00;0.90;;;0.90;;
13102;SDS011;52970;46.752;17.108;2023-08-06T09:13:26;0.80;;;0.80;;
13102;SDS011;52970;46.752;17.108;2023-08-06T09:15:52;1.55;;;0.82;;
13102;SDS011;52970;46.752;17.108;2023-08-06T09:18:24;1.65;;;0.90;;
13102;SDS011;52970;46.752;17.108;2023-08-06T09:20:50;0.70;;;0.70;;
13102;SDS011;52970;46.752;17.108;2023-08-06T09:23:15;0.98;;;0.88;;
13102;SDS011;52970;46.752;17.108;2023-08-06T09:25:40;0.70;;;0.70;;
13102;SDS011;52970;46.752;17.108;2023-08-06T09:28:06;1.15;;;0.85;;
13102;SDS011;52970;46.752;17.108;2023-08-06T09:32:56;1.02;;;0.90;;
13102;SDS011;52970;46.752;17.108;2023-08-06T09:35:22;1.00;;;1.00;;
13102;SDS011;52970;46.752;17.108;2023-08-06T09:37:47;0.90;;;0.90;;
13102;SDS011;52970;46.752;17.108;2023-08-06T09:40:26;0.80;;;0.80;;
13102;SDS011;52970;46.752;17.108;2023-08-06T09:42:51;1.58;;;1.00;;
13102;SDS011;52970;46.752;17.108;2023-08-06T09:45:17;1.40;;;0.90;;
13102;SDS011;52970;46.752;17.108;2023-08-06T09:47:42;0.98;;;0.98;;
13102;SDS011;52970;46.752;17.108;2023-08-06T09:50:19;1.00;;;1.00;;
13102;SDS011;52970;46.752;17.108;2023-08-06T09:52:46;1.05;;;1.05;;
13102;SDS011;52970;46.752;17.108;2023-08-06T09:55:12;0.80;;;0.80;;
13102;SDS011;52970;46.752;17.108;2023-08-06T09:57:38;1.65;;;0.80;;
13102;SDS011;52970;46.752;17.108;2023-08-06T10:00:04;0.88;;;0.88;;
13102;SDS011;52970;46.752;17.108;2023-08-06T10:02:30;0.88;;;0.88;;
13102;SDS011;52970;46.752;17.108;2023-08-06T10:04:56;0.80;;;0.80;;
13102;SDS011;52970;46.752;17.108;2023-08-06T10:07:22;0.73;;;0.73;;
13102;SDS011;52970;46.752;17.108;2023-08-06T10:09:49;1.00;;;1.00;;
13102;SDS011;52970;46.752;17.108;2023-08-06T10:12:14;0.90;;;0.90;;
13102;SDS011;52970;46.752;17.108;2023-08-06T10:14:40;1.00;;;1.00;;
13102;SDS011;52970;46.752;17.108;2023-08-06T10:17:06;0.75;;;0.75;;
13102;SDS011;52970;46.752;17.108;2023-08-06T10:19:32;0.93;;;0.93;;
13102;SDS011;52970;46.752;17.108;2023-08-06T10:24:48;0.77;;;0.77;;
13102;SDS011;52970;46.752;17.108;2023-08-06T10:27:13;1.15;;;0.88;;
13102;SDS011;52970;46.752;17.108;2023-08-06T10:29:38;1.52;;;1.40;;
13102;SDS011;52970;46.752;17.108;2023-08-06T10:32:04;0.80;;;0.80;;
13102;SDS011;52970;46.752;17.108;2023-08-06T10:37:16;0.88;;;0.88;;
13102;SDS011;52970;46.752;17.108;2023-08-06T10:39:47;1.05;;;0.90;;
13102;SDS011;52970;46.752;17.108;2023-08-06T10:42:22;0.93;;;0.93;;
13102;SDS011;52970;46.752;17.108;2023-08-06T10:47:38;0.80;;;0.80;;
13102;SDS011;52970;46.752;17.108;2023-08-06T10:50:04;4.80;;;1.00;;
13102;SDS011;52970;46.752;17.108;2023-08-06T10:52:30;1.13;;;0.73;;
13102;SDS011;52970;46.752;17.108;2023-08-06T10:54:56;0.90;;;0.90;;
13102;SDS011;52970;46.752;17.108;2023-08-06T10:57:21;0.90;;;0.90;;
13102;SDS011;52970;46.752;17.108;2023-08-06T10:59:46;0.70;;;0.70;;
13102;SDS011;52970;46.752;17.108;2023-08-06T11:02:11;0.90;;;0.90;;
13102;SDS011;52970;46.752;17.108;2023-08-06T11:04:37;0.95;;;0.95;;
13102;SDS011;52970;46.752;17.108;2023-08-06T11:07:03;1.38;;;0.80;;
13102;SDS011;52970;46.752;17.108;2023-08-06T11:09:28;0.88;;;0.88;;
13102;SDS011;52970;46.752;17.108;2023-08-06T11:11:53;0.80;;;0.80;;
13102;SDS011;52970;46.752;17.108;2023-08-06T11:14:18;1.00;;;1.00;;
13102;SDS011;52970;46.752;17.108;2023-08-06T11:16:44;0.68;;;0.68;;
13102;SDS011;52970;46.752;17.108;2023-08-06T11:19:09;1.23;;;0.90;;
13102;SDS011;52970;46.752;17.108;2023-08-06T11:21:35;0.80;;;0.80;;
13102;SDS011;52970;46.752;17.108;2023-08-06T11:24:00;1.05;;;1.00;;
13102;SDS011;52970;46.752;17.108;2023-08-06T11:26:26;1.20;;;1.20;;
13102;SDS011;52970;46.752;17.108;2023-08-06T11:28:53;1.05;;;1.05;;
13102;SDS011;52970;46.752;17.108;2023-08-06T11:31:19;0.90;;;0.85;;
13102;SDS011;52970;46.752;17.108;2023-08-06T11:33:44;1.10;;;1.00;;
13102;SDS011;52970;46.752;17.108;2023-08-06T11:36:10;1.65;;;0.93;;
13102;SDS011;52970;46.752;17.108;2023-08-06T11:38:35;0.98;;;0.98;;
13102;SDS011;52970;46.752;17.108;2023-08-06T11:41:00;1.73;;;1.35;;
13102;SDS011;52970;46.752;17.108;2023-08-06T11:43:25;0.90;;;0.90;;
13102;SDS011;52970;46.752;17.108;2023-08-06T11:45:51;1.63;;;0.90;;
13102;SDS011;52970;46.752;17.108;2023-08-06T11:48:18;1.30;;;1.20;;
13102;SDS011;52970;46.752;17.108;2023-08-06T11:50:44;1.70;;;1.30;;
13102;SDS011;52970;46.752;17.108;2023-08-06T11:53:11;0.90;;;0.90;;
13102;SDS011;52970;46.752;17.108;2023-08-06T11:55:37;1.02;;;1.00;;
13102;SDS011;52970;46.752;17.108;2023-08-06T11:58:03;1.10;;;1.10;;
13102;SDS011;52970;46.752;17.108;2023-08-06T12:00:31;1.08;;;1.08;;
13102;SDS011;52970;46.752;17.108;2023-08-06T12:02:56;2.25;;;0.95;;
13102;SDS011;52970;46.752;17.108;2023-08-06T12:05:22;1.55;;;0.88;;
13102;SDS011;52970;46.752;17.108;2023-08-06T12:07:52;1.13;;;1.13;;
13102;SDS011;52970;46.752;17.108;2023-08-06T12:10:18;1.10;;;1.10;;
13102;SDS011;52970;46.752;17.108;2023-08-06T12:12:44;0.90;;;0.90;;
13102;SDS011;52970;46.752;17.108;2023-08-06T12:15:10;1.83;;;1.00;;
13102;SDS011;52970;46.752;17.108;2023-08-06T12:17:35;1.10;;;1.10;;
13102;SDS011;52970;46.752;17.108;2023-08-06T12:20:01;2.25;;;1.20;;
13102;SDS011;52970;46.752;17.108;2023-08-06T12:22:29;0.82;;;0.82;;
13102;SDS011;52970;46.752;17.108;2023-08-06T12:24:57;1.10;;;1.00;;
13102;SDS011;52970;46.752;17.108;2023-08-06T12:27:22;1.65;;;1.13;;
13102;SDS011;52970;46.752;17.108;2023-08-06T12:29:48;5.15;;;1.60;;
13102;SDS011;52970;46.752;17.108;2023-08-06T12:32:13;1.20;;;1.20;;
13102;SDS011;52970;46.752;17.108;2023-08-06T12:34:39;1.27;;;1.15;;
13102;SDS011;52970;46.752;17.108;2023-08-06T12:37:05;1.48;;;1.30;;
13102;SDS011;52970;46.752;17.108;2023-08-06T12:39:30;1.00;;;1.00;;
13102;SDS011;52970;46.752;17.108;2023-08-06T12:41:56;1.13;;;1.10;;
13102;SDS011;52970;46.752;17.108;2023-08-06T12:44:23;1.88;;;1.23;;
13102;SDS011;52970;46.752;17.108;2023-08-06T12:46:48;1.10;;;1.10;;
13102;SDS011;52970;46.752;17.108;2023-08-06T12:49:13;1.15;;;1.10;;
13102;SDS011;52970;46.752;17.108;2023-08-06T12:51:38;1.23;;;1.10;;
13102;SDS011;52970;46.752;17.108;2023-08-06T12:54:04;0.80;;;0.80;;
13102;SDS011;52970;46.752;17.108;2023-08-06T12:56:29;1.50;;;1.40;;
13102;SDS011;52970;46.752;17.108;2023-08-06T12:58:54;1.08;;;1.08;;
13102;SDS011;52970;46.752;17.108;2023-08-06T13:01:20;1.02;;;1.02;;
13102;SDS011;52970;46.752;17.108;2023-08-06T13:03:45;2.50;;;1.05;;
13102;SDS011;52970;46.752;17.108;2023-08-06T13:06:11;1.27;;;1.23;;
13102;SDS011;52970;46.752;17.108;2023-08-06T13:08:37;0.68;;;0.68;;
13102;SDS011;52970;46.752;17.108;2023-08-06T13:11:03;1.10;;;1.10;;
13102;SDS011;52970;46.752;17.108;2023-08-06T13:13:28;1.05;;;1.05;;
13102;SDS011;52970;46.752;17.108;2023-08-06T13:15:54;1.20;;;1.20;;
13102;SDS011;52970;46.752;17.108;2023-08-06T13:18:20;1.10;;;1.08;;
13102;SDS011;52970;46.752;17.108;2023-08-06T13:20:45;1.35;;;1.25;;
13102;SDS011;52970;46.752;17.108;2023-08-06T13:23:12;1.30;;;1.20;;
13102;SDS011;52970;46.752;17.108;2023-08-06T13:25:41;1.45;;;1.08;;
13102;SDS011;52970;46.752;17.108;2023-08-06T13:28:07;1.20;;;1.20;;
13102;SDS011;52970;46.752;17.108;2023-08-06T13:30:33;1.33;;;1.23;;
13102;SDS011;52970;46.752;17.108;2023-08-06T13:33:00;1.00;;;1.00;;
13102;SDS011;52970;46.752;17.108;2023-08-06T13:35:26;0.90;;;0.90;;
13102;SDS011;52970;46.752;17.108;2023-08-06T13:37:52;1.10;;;1.10;;
13102;SDS011;52970;46.752;17.108;2023-08-06T13:40:18;1.25;;;1.00;;
13102;SDS011;52970;46.752;17.108;2023-08-06T13:42:43;1.00;;;1.00;;
13102;SDS011;52970;46.752;17.108;2023-08-06T13:45:09;1.00;;;1.00;;
13102;SDS011;52970;46.752;17.108;2023-08-06T13:47:34;1.23;;;1.05;;
13102;SDS011;52970;46.752;17.108;2023-08-06T13:50:00;1.27;;;1.17;;
13102;SDS011;52970;46.752;17.108;2023-08-06T13:52:26;1.20;;;1.20;;
13102;SDS011;52970;46.752;17.108;2023-08-06T13:54:51;3.40;;;1.15;;
13102;SDS011;52970;46.752;17.108;2023-08-06T13:57:17;1.10;;;1.00;;
13102;SDS011;52970;46.752;17.108;2023-08-06T13:59:42;1.42;;;1.33;;
13102;SDS011;52970;46.752;17.108;2023-08-06T14:02:08;1.23;;;1.23;;
13102;SDS011;52970;46.752;17.108;2023-08-06T14:04:34;1.00;;;1.00;;
13102;SDS011;52970;46.752;17.108;2023-08-06T14:07:00;1.52;;;1.42;;
13102;SDS011;52970;46.752;17.108;2023-08-06T14:09:25;1.42;;;1.42;;
13102;SDS011;52970;46.752;17.108;2023-08-06T14:11:51;1.35;;;1.15;;
13102;SDS011;52970;46.752;17.108;2023-08-06T14:14:16;2.38;;;1.10;;
13102;SDS011;52970;46.752;17.108;2023-08-06T14:16:42;1.30;;;1.30;;
13102;SDS011;52970;46.752;17.108;2023-08-06T14:19:07;1.75;;;1.23;;
13102;SDS011;52970;46.752;17.108;2023-08-06T14:21:33;1.35;;;0.93;;
13102;SDS011;52970;46.752;17.108;2023-08-06T14:23:58;1.27;;;1.27;;
13102;SDS011;52970;46.752;17.108;2023-08-06T14:26:24;1.45;;;1.35;;
13102;SDS011;52970;46.752;17.108;2023-08-06T14:28:49;3.33;;;1.25;;
13102;SDS011;52970;46.752;17.108;2023-08-06T14:31:19;1.25;;;1.15;;
13102;SDS011;52970;46.752;17.108;2023-08-06T14:33:45;2.67;;;1.30;;
13102;SDS011;52970;46.752;17.108;2023-08-06T14:36:11;0.98;;;0.98;;
13102;SDS011;52970;46.752;17.108;2023-08-06T14:38:36;0.90;;;0.90;;